Time;durP1;ratioP1;P1;durP2;ratioP2;P2;SDS_P1;SDS_P2;PMS_P1;PMS_P2;Temp;Humidity;BMP_temperature;BMP_pressure;BME280_temperature;BME280_humidity;BME280_pressure;Samples;Min_cycle;Max_cycle;Signal;HPM_P1;HPM_P2
2022/11/20 00:01:19;;;;;;;3.00;1.08;;;7.20;73.90;;;;;;5052196;28;20187;-66
2022/11/20 00:03:52;;;;;;;2.00;0.98;;;7.30;74.10;;;;;;5051309;28;20214;-66
2022/11/20 00:06:21;;;;;;;3.13;1.40;;;7.30;74.30;;;;;;5052220;28;20724;-66
2022/11/20 00:08:49;;;;;;;3.10;1.20;;;7.30;74.50;;;;;;5051718;28;20193;-66
2022/11/20 00:11:18;;;;;;;2.70;1.20;;;7.30;74.00;;;;;;5051517;28;20229;-66
2022/11/20 00:13:49;;;;;;;2.53;1.40;;;7.30;74.20;;;;;;5046330;28;20193;-66
2022/11/20 00:16:18;;;;;;;2.20;1.23;;;7.30;74.10;;;;;;5047854;28;20190;-67
2022/11/20 00:18:48;;;;;;;2.17;1.10;;;7.30;74.10;;;;;;5048053;28;20287;-67
2022/11/20 00:21:18;;;;;;;5.85;2.00;;;7.30;74.00;;;;;;5049772;28;20697;-66
2022/11/20 00:23:47;;;;;;;2.05;1.08;;;7.30;74.00;;;;;;5050787;28;20537;-66
2022/11/20 00:29:03;;;;;;;2.50;1.40;;;7.40;73.90;;;;;;5050805;28;20221;-65
2022/11/20 00:31:32;;;;;;;3.13;1.25;;;7.40;73.90;;;;;;5050936;28;20699;-66
2022/11/20 00:34:00;;;;;;;2.38;1.45;;;7.30;73.90;;;;;;5050703;28;20218;-66
2022/11/20 00:36:28;;;;;;;2.60;1.42;;;7.30;74.70;;;;;;5050265;28;20273;-65
2022/11/20 00:39:08;;;;;;;2.33;1.20;;;7.40;74.10;;;;;;5050677;28;20187;-66
2022/11/20 00:41:36;;;;;;;2.35;1.65;;;7.40;74.30;;;;;;5051095;28;20190;-66
2022/11/20 00:44:06;;;;;;;2.65;2.13;;;7.40;74.60;;;;;;5051096;28;20216;-66
2022/11/20 00:46:33;;;;;;;4.50;1.83;;;7.40;74.80;;;;;;5050764;28;20217;-66
2022/11/20 00:49:02;;;;;;;2.00;1.20;;;7.40;74.80;;;;;;5050179;28;20198;-66
2022/11/20 00:51:30;;;;;;;2.97;1.45;;;7.50;75.00;;;;;;5051006;28;20295;-66
2022/11/20 00:53:58;;;;;;;3.08;1.50;;;7.50;75.20;;;;;;5050494;28;20240;-66
2022/11/20 00:56:25;;;;;;;2.83;1.20;;;7.50;75.20;;;;;;5050215;28;20194;-68
2022/11/20 00:58:52;;;;;;;2.70;1.45;;;7.50;75.30;;;;;;5049933;28;20226;-66
2022/11/20 01:01:24;;;;;;;2.72;1.42;;;7.60;75.40;;;;;;5050385;28;20202;-66
2022/11/20 01:04:06;;;;;;;2.80;1.27;;;7.60;75.30;;;;;;5050235;28;20224;-66
2022/11/20 01:06:37;;;;;;;2.60;1.10;;;7.60;75.20;;;;;;5050418;28;20201;-66
2022/11/20 01:09:07;;;;;;;2.22;1.20;;;7.60;75.20;;;;;;5050986;28;20194;-67
2022/11/20 01:11:36;;;;;;;2.10;1.30;;;7.70;75.20;;;;;;5050377;28;20218;-67
2022/11/20 01:14:07;;;;;;;2.78;1.27;;;7.70;75.30;;;;;;5051138;28;20285;-68
2022/11/20 01:16:42;;;;;;;3.35;1.52;;;7.70;75.30;;;;;;5031082;28;20191;-66
2022/11/20 01:19:12;;;;;;;3.20;1.40;;;7.70;75.20;;;;;;5030355;28;20195;-67
2022/11/20 01:21:40;;;;;;;1.95;1.33;;;7.70;75.00;;;;;;5050353;28;20281;-66
2022/11/20 01:24:11;;;;;;;2.50;1.20;;;7.80;74.90;;;;;;5050598;28;20233;-67
2022/11/20 01:26:41;;;;;;;7.20;1.60;;;7.70;74.60;;;;;;5051476;28;20194;-67
2022/11/20 01:29:16;;;;;;;1.90;1.13;;;7.80;74.90;;;;;;5054740;28;20212;-66
2022/11/20 01:31:45;;;;;;;6.47;1.40;;;7.80;74.90;;;;;;5053656;28;20214;-67
2022/11/20 01:34:19;;;;;;;3.80;1.50;;;7.80;74.70;;;;;;5053941;28;20692;-67
2022/11/20 01:36:47;;;;;;;4.47;2.00;;;7.80;74.60;;;;;;5053973;28;20240;-66
2022/11/20 01:39:20;;;;;;;4.10;2.25;;;7.90;74.60;;;;;;5053087;28;20221;-67
2022/11/20 01:45:03;;;;;;;2.70;1.95;;;7.80;74.90;;;;;;5053948;28;20252;-67
2022/11/20 01:47:37;;;;;;;3.50;1.85;;;7.80;75.20;;;;;;5053906;28;20196;-66
2022/11/20 01:50:08;;;;;;;2.65;2.10;;;7.80;75.10;;;;;;5053393;28;20226;-67
2022/11/20 01:52:42;;;;;;;3.10;2.35;;;7.80;75.10;;;;;;5054276;28;20556;-66
2022/11/20 01:55:19;;;;;;;2.95;1.80;;;7.90;75.20;;;;;;5053728;28;20182;-66
2022/11/20 01:57:51;;;;;;;3.15;1.92;;;7.90;75.20;;;;;;5053666;28;20225;-66
2022/11/20 02:00:20;;;;;;;2.92;1.98;;;7.90;75.20;;;;;;5053253;28;20182;-66
2022/11/20 02:02:53;;;;;;;2.45;1.80;;;7.90;75.00;;;;;;5053226;28;20191;-66
2022/11/20 02:05:24;;;;;;;6.95;3.05;;;7.90;75.90;;;;;;5053128;28;20580;-66
2022/11/20 02:07:54;;;;;;;2.85;1.85;;;7.90;75.20;;;;;;5053541;28;20190;-66
2022/11/20 02:10:22;;;;;;;3.92;2.15;;;8.00;75.20;;;;;;5052020;28;20190;-66
2022/11/20 02:15:34;;;;;;;3.53;2.47;;;8.00;75.10;;;;;;5053532;28;20197;-66
2022/11/20 02:18:03;;;;;;;2.85;1.95;;;8.00;75.00;;;;;;5054478;28;20609;-66
2022/11/20 02:20:33;;;;;;;3.85;2.13;;;8.00;75.10;;;;;;5053752;28;20302;-66
2022/11/20 02:23:06;;;;;;;4.35;2.38;;;7.90;74.90;;;;;;5053011;28;20210;-66
2022/11/20 02:25:37;;;;;;;2.90;2.22;;;7.90;74.50;;;;;;5053763;28;20641;-66
2022/11/20 02:28:06;;;;;;;4.40;2.17;;;7.90;74.30;;;;;;5054254;28;20593;-66
2022/11/20 02:30:33;;;;;;;3.85;2.80;;;7.80;74.10;;;;;;5053709;28;20194;-66
2022/11/20 02:33:00;;;;;;;4.43;2.58;;;7.70;74.20;;;;;;5053809;28;20230;-66
2022/11/20 02:35:55;;;;;;;2.90;2.38;;;7.70;74.30;;;;;;5032167;28;20653;-68
2022/11/20 02:38:22;;;;;;;5.30;2.53;;;7.60;74.50;;;;;;5033099;28;20237;-66
2022/11/20 02:40:51;;;;;;;5.25;3.00;;;7.50;74.90;;;;;;5033283;28;20183;-66
2022/11/20 02:43:19;;;;;;;3.63;2.25;;;7.50;75.30;;;;;;5033513;28;20550;-66
2022/11/20 02:45:47;;;;;;;2.25;1.70;;;7.40;76.10;;;;;;5033025;28;20199;-66
2022/11/20 02:48:14;;;;;;;4.45;3.17;;;7.40;75.30;;;;;;5033602;28;20587;-66
2022/11/20 02:50:42;;;;;;;3.90;2.70;;;7.30;75.60;;;;;;5033440;28;20194;-67
2022/11/20 02:53:09;;;;;;;5.15;2.88;;;7.20;75.80;;;;;;5013407;28;20716;-66
2022/11/20 02:55:37;;;;;;;3.60;2.65;;;7.20;76.00;;;;;;5013590;28;20207;-66
2022/11/20 02:58:06;;;;;;;3.80;2.33;;;7.10;76.20;;;;;;5032118;28;20195;-66
2022/11/20 03:00:33;;;;;;;3.83;2.90;;;7.00;76.50;;;;;;5033017;28;20191;-65
2022/11/20 03:03:01;;;;;;;5.60;3.05;;;6.90;76.70;;;;;;5032566;28;20258;-66
2022/11/20 03:05:28;;;;;;;3.95;2.70;;;6.90;76.70;;;;;;5032671;28;20221;-65
2022/11/20 03:07:55;;;;;;;3.83;2.53;;;6.80;77.20;;;;;;5033084;28;20245;-66
2022/11/20 03:10:22;;;;;;;6.15;2.58;;;6.80;77.40;;;;;;5032932;28;20191;-66
2022/11/20 03:12:55;;;;;;;4.32;2.88;;;6.70;77.50;;;;;;5033203;28;20215;-66
2022/11/20 03:15:23;;;;;;;3.35;2.58;;;6.70;77.70;;;;;;5032957;28;20187;-66
2022/11/20 03:17:53;;;;;;;6.90;4.20;;;6.60;77.70;;;;;;5033178;28;20281;-66
2022/11/20 03:20:21;;;;;;;7.15;3.15;;;6.60;78.50;;;;;;5032754;28;20187;-66
2022/11/20 03:22:48;;;;;;;5.53;3.10;;;6.40;79.60;;;;;;5032657;28;20241;-66
2022/11/20 03:25:15;;;;;;;5.93;3.67;;;6.40;80.40;;;;;;5032632;28;20668;-68
2022/11/20 03:27:42;;;;;;;6.07;3.65;;;6.40;80.80;;;;;;5032381;28;20579;-65
2022/11/20 03:30:12;;;;;;;5.38;4.10;;;6.40;81.00;;;;;;5030145;28;20237;-66
2022/11/20 03:32:41;;;;;;;6.95;4.82;;;6.40;81.90;;;;;;5032130;28;20269;-66
2022/11/20 03:35:08;;;;;;;6.85;3.63;;;6.40;81.90;;;;;;5032764;28;20637;-66
2022/11/20 03:37:37;;;;;;;6.70;4.45;;;6.40;81.90;;;;;;5032338;28;20210;-67
2022/11/20 03:40:06;;;;;;;4.95;3.67;;;6.50;81.80;;;;;;5032748;28;20218;-66
2022/11/20 03:42:46;;;;;;;7.00;3.72;;;6.50;81.90;;;;;;5032814;28;20533;-66
2022/11/20 03:45:14;;;;;;;7.30;4.07;;;6.50;82.20;;;;;;5032577;28;20285;-66
2022/11/20 03:47:43;;;;;;;7.05;3.97;;;6.60;82.20;;;;;;5032314;28;20190;-66
2022/11/20 03:50:13;;;;;;;5.60;3.30;;;6.60;82.40;;;;;;5031899;28;20241;-66
2022/11/20 03:52:41;;;;;;;6.97;3.58;;;6.50;83.20;;;;;;5031850;28;20254;-66
2022/11/20 03:55:09;;;;;;;5.90;3.80;;;6.50;83.50;;;;;;5032253;28;20195;-66
2022/11/20 03:57:36;;;;;;;8.30;4.40;;;6.50;83.50;;;;;;5032289;28;20191;-66
2022/11/20 04:00:05;;;;;;;6.47;4.13;;;6.40;84.00;;;;;;5031827;28;20183;-66
2022/11/20 04:02:33;;;;;;;6.03;4.00;;;6.40;84.70;;;;;;5032062;28;20183;-66
2022/11/20 04:05:02;;;;;;;5.38;3.40;;;6.40;84.90;;;;;;5031568;28;20615;-65
2022/11/20 04:07:29;;;;;;;6.40;3.70;;;6.40;85.40;;;;;;5032624;28;20280;-65
2022/11/20 04:09:57;;;;;;;6.40;3.63;;;6.40;85.50;;;;;;5032039;28;20206;-66
2022/11/20 04:12:25;;;;;;;4.00;3.03;;;6.50;85.20;;;;;;5032401;28;20285;-66
2022/11/20 04:14:52;;;;;;;4.75;3.53;;;6.50;85.20;;;;;;5032068;28;20194;-66
2022/11/20 04:17:22;;;;;;;5.53;3.88;;;6.40;85.70;;;;;;5032652;28;20199;-66
2022/11/20 04:19:50;;;;;;;8.90;2.83;;;6.40;85.70;;;;;;5032340;28;20195;-67
2022/11/20 04:22:19;;;;;;;8.13;3.88;;;6.30;86.50;;;;;;5031957;28;20193;-66
2022/11/20 04:24:47;;;;;;;4.70;3.20;;;6.30;86.90;;;;;;5032328;28;20194;-66
2022/11/20 04:27:14;;;;;;;8.07;3.28;;;6.30;86.90;;;;;;5031680;28;20546;-67
2022/11/20 04:29:42;;;;;;;6.00;3.92;;;6.30;86.70;;;;;;5032477;28;20579;-67
2022/11/20 04:32:09;;;;;;;5.18;3.03;;;6.40;86.80;;;;;;5031667;28;20237;-66
2022/11/20 04:34:37;;;;;;;4.68;3.88;;;6.40;86.90;;;;;;5032050;28;20715;-66
2022/11/20 04:37:10;;;;;;;5.00;3.78;;;6.40;87.00;;;;;;5031677;28;20705;-66
2022/11/20 04:39:39;;;;;;;6.35;3.20;;;6.30;87.30;;;;;;5032054;28;20197;-67
2022/11/20 04:44:52;;;;;;;4.95;3.55;;;6.40;87.40;;;;;;5032158;28;20290;-66
2022/11/20 04:47:19;;;;;;;4.43;3.03;;;6.50;87.10;;;;;;5031572;28;20191;-67
2022/11/20 04:49:47;;;;;;;4.68;3.30;;;6.40;87.50;;;;;;5031859;28;20191;-66
2022/11/20 04:52:15;;;;;;;4.40;2.90;;;6.40;87.80;;;;;;5031458;28;20560;-66
2022/11/20 04:54:44;;;;;;;3.70;2.75;;;6.40;87.80;;;;;;5031238;28;20197;-66
2022/11/20 04:57:13;;;;;;;5.32;3.50;;;6.40;87.80;;;;;;5031815;28;20502;-66
2022/11/20 04:59:49;;;;;;;5.93;3.80;;;6.50;87.70;;;;;;5031433;28;20195;-66
2022/11/20 05:02:17;;;;;;;4.80;3.67;;;6.50;87.60;;;;;;5032950;28;20222;-66
2022/11/20 05:04:45;;;;;;;4.18;3.22;;;6.50;87.60;;;;;;5035443;28;20565;-66
2022/11/20 05:07:16;;;;;;;4.78;2.97;;;6.50;87.60;;;;;;5035540;28;20219;-66
2022/11/20 05:09:45;;;;;;;6.35;3.45;;;6.50;88.00;;;;;;5035657;28;20556;-67
2022/11/20 05:12:13;;;;;;;5.88;3.70;;;6.50;87.90;;;;;;5035727;28;20699;-66
2022/11/20 05:14:40;;;;;;;5.03;3.60;;;6.60;87.90;;;;;;5035556;28;20265;-66
2022/11/20 05:17:11;;;;;;;4.50;3.40;;;6.50;88.10;;;;;;5035698;28;20252;-66
2022/11/20 05:19:39;;;;;;;7.15;4.10;;;6.60;88.00;;;;;;5035326;28;20273;-66
2022/11/20 05:22:09;;;;;;;3.63;3.00;;;6.60;87.80;;;;;;5035426;28;20187;-66
2022/11/20 05:24:37;;;;;;;5.85;3.75;;;6.60;87.40;;;;;;5035175;28;20187;-66
2022/11/20 05:27:06;;;;;;;5.78;3.30;;;6.60;87.60;;;;;;5035356;28;20325;-67
2022/11/20 05:29:34;;;;;;;3.95;2.83;;;6.70;87.50;;;;;;5035239;28;20183;-66
2022/11/20 05:32:02;;;;;;;6.57;3.58;;;6.80;87.30;;;;;;5035575;28;20592;-66
2022/11/20 05:34:29;;;;;;;5.95;2.92;;;6.80;87.20;;;;;;5035247;28;20186;-66
2022/11/20 05:36:57;;;;;;;5.57;3.40;;;6.80;86.70;;;;;;5035456;28;20637;-66
2022/11/20 05:39:25;;;;;;;6.35;3.72;;;6.80;86.90;;;;;;5035249;28;20197;-65
2022/11/20 05:42:29;;;;;;;6.85;3.13;;;6.80;86.90;;;;;;5035311;28;20654;-66
2022/11/20 05:44:43;;;;;;;4.15;3.25;;;6.80;86.60;;;;;;5034895;28;20190;-66
2022/11/20 05:47:11;;;;;;;4.75;3.70;;;6.90;86.30;;;;;;5035410;28;20195;-67
2022/11/20 05:49:39;;;;;;;5.22;3.83;;;6.90;86.20;;;;;;5034788;28;20183;-66
2022/11/20 05:52:07;;;;;;;4.43;3.20;;;6.90;86.00;;;;;;5035277;28;20309;-66
2022/11/20 05:54:35;;;;;;;4.43;3.72;;;7.00;85.90;;;;;;5034559;28;20195;-67
2022/11/20 05:57:02;;;;;;;4.70;3.00;;;7.00;85.40;;;;;;5034991;28;20199;-66
2022/11/20 05:59:29;;;;;;;5.28;4.13;;;7.00;85.20;;;;;;5034568;28;20592;-66
2022/11/20 06:01:59;;;;;;;5.18;4.40;;;7.00;85.10;;;;;;5034699;28;20234;-67
2022/11/20 06:04:26;;;;;;;3.30;2.45;;;7.10;85.10;;;;;;5034294;28;20276;-66
2022/11/20 06:06:53;;;;;;;4.30;3.80;;;7.10;85.10;;;;;;5034851;28;20191;-66
2022/11/20 06:09:21;;;;;;;4.63;3.40;;;7.10;84.90;;;;;;5034249;28;20198;-66
2022/11/20 06:11:49;;;;;;;4.25;3.85;;;7.10;84.80;;;;;;5034370;28;20191;-66
2022/11/20 06:14:17;;;;;;;5.13;4.63;;;7.10;84.40;;;;;;5033434;28;20199;-66
2022/11/20 06:16:44;;;;;;;3.55;2.58;;;7.00;84.20;;;;;;5014973;28;20223;-66
2022/11/20 06:19:13;;;;;;;5.43;3.22;;;7.00;83.60;;;;;;5032130;28;20190;-66
2022/11/20 06:21:41;;;;;;;4.53;3.17;;;6.90;83.40;;;;;;5034159;28;20241;-66
2022/11/20 06:24:10;;;;;;;9.18;3.65;;;6.80;83.70;;;;;;5034856;28;20195;-65
2022/11/20 06:26:38;;;;;;;7.18;3.72;;;6.80;83.60;;;;;;5033775;28;20705;-66
2022/11/20 06:29:07;;;;;;;11.35;5.03;;;6.70;83.30;;;;;;5034623;28;20226;-66
2022/11/20 06:31:37;;;;;;;4.85;3.08;;;6.70;83.50;;;;;;5034325;28;20218;-66
2022/11/20 06:34:05;;;;;;;7.97;3.47;;;6.60;83.80;;;;;;5034190;28;20305;-65
2022/11/20 06:36:34;;;;;;;4.47;2.90;;;6.60;83.70;;;;;;5033891;28;20198;-66
2022/11/20 06:39:03;;;;;;;6.10;4.53;;;6.50;83.90;;;;;;5034265;28;20198;-66
2022/11/20 06:41:30;;;;;;;4.70;3.50;;;6.50;83.80;;;;;;5033769;28;20187;-66
2022/11/20 06:43:58;;;;;;;4.65;2.53;;;6.50;83.90;;;;;;5033722;28;20277;-66
2022/11/20 06:46:25;;;;;;;3.97;2.88;;;6.40;84.00;;;;;;5033150;28;20222;-66
2022/11/20 06:48:53;;;;;;;4.28;2.78;;;6.40;84.00;;;;;;5032778;28;20187;-66
2022/11/20 06:51:21;;;;;;;4.35;3.03;;;6.30;84.10;;;;;;5034058;28;20590;-67
2022/11/20 06:53:49;;;;;;;7.70;3.33;;;6.30;84.00;;;;;;5033427;28;20210;-66
2022/11/20 06:56:17;;;;;;;7.63;3.67;;;6.30;84.30;;;;;;5033920;28;20669;-66
2022/11/20 06:58:45;;;;;;;5.40;4.22;;;6.20;84.40;;;;;;5033585;28;20187;-66
2022/11/20 07:01:15;;;;;;;5.55;3.65;;;6.20;84.90;;;;;;5033869;28;20190;-66
2022/11/20 07:03:43;;;;;;;3.92;2.80;;;6.20;84.90;;;;;;5033441;28;20230;-66
2022/11/20 07:06:13;;;;;;;3.20;2.50;;;6.10;85.20;;;;;;5033643;28;20219;-65
2022/11/20 07:08:41;;;;;;;7.90;3.33;;;6.10;85.50;;;;;;5032716;28;20183;-66
2022/11/20 07:11:13;;;;;;;4.38;2.92;;;6.10;85.50;;;;;;5031789;28;20242;-68
2022/11/20 07:13:40;;;;;;;6.47;3.40;;;6.20;86.00;;;;;;5029687;28;20345;-66
2022/11/20 07:16:10;;;;;;;4.70;3.25;;;6.40;87.00;;;;;;5030972;28;20187;-66
2022/11/20 07:18:38;;;;;;;5.03;2.75;;;6.50;85.80;;;;;;5031446;28;20592;-66
2022/11/20 07:21:07;;;;;;;4.55;3.72;;;6.70;85.60;;;;;;5031173;28;20282;-66
2022/11/20 07:23:35;;;;;;;6.55;3.70;;;6.80;85.20;;;;;;5031517;28;20187;-66
2022/11/20 07:26:17;;;;;;;3.70;2.67;;;7.00;85.00;;;;;;5029595;28;20184;-66
2022/11/20 07:28:50;;;;;;;4.72;3.38;;;7.20;83.00;;;;;;5029656;28;20194;-66
2022/11/20 07:31:17;;;;;;;4.53;2.80;;;7.30;81.60;;;;;;5031009;28;20187;-67
2022/11/20 07:33:44;;;;;;;4.00;2.80;;;7.30;81.10;;;;;;5031485;28;20219;-66
2022/11/20 07:36:12;;;;;;;3.67;2.80;;;7.30;80.20;;;;;;5031104;28;20297;-66
2022/11/20 07:38:40;;;;;;;7.13;3.58;;;7.30;80.10;;;;;;5031762;28;20222;-67
2022/11/20 07:41:07;;;;;;;3.35;2.60;;;7.30;79.30;;;;;;5030256;28;20237;-66
2022/11/20 07:43:35;;;;;;;4.95;3.20;;;7.30;78.30;;;;;;5031239;28;20198;-66
2022/11/20 07:46:04;;;;;;;5.63;2.70;;;7.40;78.80;;;;;;5031093;28;20248;-66
2022/11/20 07:48:32;;;;;;;3.65;2.00;;;7.40;77.30;;;;;;5030944;28;20187;-66
2022/11/20 07:50:59;;;;;;;3.40;2.40;;;7.30;76.80;;;;;;5030297;28;20336;-66
2022/11/20 07:53:27;;;;;;;3.60;1.98;;;7.40;76.20;;;;;;5029418;28;20953;-66
2022/11/20 07:55:54;;;;;;;5.05;2.38;;;7.40;75.10;;;;;;5030381;28;20191;-66
2022/11/20 07:58:22;;;;;;;3.80;2.33;;;7.50;74.70;;;;;;5028972;28;20654;-66
2022/11/20 08:00:49;;;;;;;2.75;1.52;;;7.50;74.50;;;;;;5030755;28;20595;-66
2022/11/20 08:03:19;;;;;;;4.18;1.88;;;7.70;73.50;;;;;;5028969;28;20237;-67
2022/11/20 08:05:46;;;;;;;3.15;1.70;;;7.70;72.60;;;;;;5029787;28;20715;-66
2022/11/20 08:08:13;;;;;;;7.55;1.80;;;7.90;72.20;;;;;;5030289;28;20197;-66
2022/11/20 08:10:40;;;;;;;2.70;1.88;;;8.00;71.80;;;;;;5028729;28;20194;-66
2022/11/20 08:15:54;;;;;;;3.65;1.85;;;8.10;70.60;;;;;;5030316;28;20202;-66
2022/11/20 08:18:23;;;;;;;2.35;1.45;;;8.10;70.30;;;;;;5030498;28;20206;-67
2022/11/20 08:20:50;;;;;;;2.85;2.00;;;8.20;70.30;;;;;;5030612;28;20257;-66
2022/11/20 08:23:17;;;;;;;2.88;1.70;;;8.30;70.20;;;;;;5030041;28;20241;-66
2022/11/20 08:25:49;;;;;;;3.30;1.80;;;8.40;69.30;;;;;;5030405;28;20600;-67
2022/11/20 08:28:17;;;;;;;2.80;1.38;;;8.50;68.20;;;;;;5030619;28;20677;-66
2022/11/20 08:30:45;;;;;;;2.80;1.70;;;8.50;67.00;;;;;;5028552;28;20576;-67
2022/11/20 08:33:13;;;;;;;3.30;1.80;;;8.60;67.40;;;;;;5027426;28;20709;-66
2022/11/20 08:35:42;;;;;;;3.22;2.10;;;8.70;67.30;;;;;;5024422;28;20221;-67
2022/11/20 08:38:10;;;;;;;2.85;1.30;;;8.90;67.80;;;;;;5029362;28;20198;-66
2022/11/20 08:40:38;;;;;;;2.90;1.60;;;9.10;64.10;;;;;;5029033;28;20198;-66
2022/11/20 08:43:06;;;;;;;3.28;1.80;;;9.30;64.50;;;;;;5029951;28;20286;-66
2022/11/20 08:45:33;;;;;;;3.25;1.88;;;9.50;62.80;;;;;;5029439;28;20230;-66
2022/11/20 08:48:02;;;;;;;4.25;1.90;;;9.70;60.90;;;;;;5029701;28;20190;-66
2022/11/20 08:50:31;;;;;;;2.45;1.48;;;9.80;59.70;;;;;;5030023;28;20206;-65
2022/11/20 08:53:06;;;;;;;3.50;2.33;;;10.10;57.70;;;;;;5029050;28;20218;-66
2022/11/20 08:55:35;;;;;;;2.92;2.00;;;10.80;57.20;;;;;;5028697;28;20201;-66
2022/11/20 08:58:05;;;;;;;5.90;1.95;;;11.50;55.30;;;;;;5028743;28;20200;-66
2022/11/20 09:00:35;;;;;;;3.58;1.48;;;12.20;55.20;;;;;;5028610;28;20197;-66
2022/11/20 09:03:03;;;;;;;2.65;1.70;;;12.40;53.10;;;;;;5029107;28;20256;-66
2022/11/20 09:05:31;;;;;;;3.08;1.30;;;12.50;53.70;;;;;;5029623;28;20647;-66
2022/11/20 09:08:00;;;;;;;2.63;1.55;;;12.60;51.40;;;;;;5028338;28;20194;-66
2022/11/20 09:10:31;;;;;;;2.42;1.38;;;12.30;50.10;;;;;;5028965;28;20282;-68
2022/11/20 09:12:59;;;;;;;3.67;1.90;;;12.10;51.30;;;;;;5025743;28;20224;-67
2022/11/20 09:15:28;;;;;;;3.10;1.47;;;12.00;51.60;;;;;;5029145;28;20233;-66
2022/11/20 09:17:56;;;;;;;2.13;1.25;;;12.00;52.30;;;;;;5029286;28;20500;-67
2022/11/20 09:20:24;;;;;;;4.18;1.30;;;11.90;50.50;;;;;;5029044;28;20197;-66
2022/11/20 09:22:52;;;;;;;2.88;1.55;;;11.70;51.20;;;;;;5029689;28;20191;-66
2022/11/20 09:25:20;;;;;;;2.78;1.65;;;11.60;50.60;;;;;;5029933;28;20202;-66
2022/11/20 09:27:49;;;;;;;3.92;1.60;;;11.50;51.90;;;;;;5028992;28;20194;-66
2022/11/20 09:30:17;;;;;;;3.22;1.20;;;11.50;52.20;;;;;;5024787;28;20213;-66
2022/11/20 09:32:45;;;;;;;5.13;1.50;;;12.00;52.60;;;;;;5028112;28;20252;-66
2022/11/20 09:35:16;;;;;;;2.77;1.00;;;13.20;50.00;;;;;;5028976;28;20441;-67
2022/11/20 09:37:48;;;;;;;2.70;1.40;;;14.00;48.00;;;;;;5024847;28;20442;-66
2022/11/20 09:40:23;;;;;;;1.90;0.93;;;14.20;46.70;;;;;;5028761;28;20441;-67
2022/11/20 09:43:00;;;;;;;2.50;1.50;;;14.10;45.20;;;;;;5026390;28;20935;-67
2022/11/20 09:45:55;;;;;;;3.90;1.10;;;14.00;45.60;;;;;;5026894;28;20456;-66
2022/11/20 09:48:45;;;;;;;2.13;1.10;;;14.80;46.10;;;;;;5027885;28;20437;-67
2022/11/20 09:51:34;;;;;;;3.47;1.70;;;16.10;44.60;;;;;;5031001;28;20452;-67
2022/11/20 09:54:14;;;;;;;2.90;0.90;;;17.00;40.00;;;;;;5029329;28;20485;-66
2022/11/20 09:56:49;;;;;;;2.87;1.00;;;17.80;39.30;;;;;;5031686;28;20437;-67
2022/11/20 09:59:34;;;;;;;2.30;1.20;;;18.40;37.90;;;;;;5032545;28;20452;-66
2022/11/20 10:02:04;;;;;;;2.87;1.00;;;19.30;36.30;;;;;;5022745;28;20461;-67
2022/11/20 10:04:34;;;;;;;2.93;1.07;;;19.90;35.00;;;;;;5031451;28;20478;-67
2022/11/20 10:07:06;;;;;;;2.30;1.17;;;20.40;33.30;;;;;;5030722;28;20448;-67
2022/11/20 10:09:37;;;;;;;2.93;0.90;;;20.80;32.20;;;;;;5031291;28;20489;-67
2022/11/20 10:12:17;;;;;;;3.10;0.90;;;21.10;31.00;;;;;;5031262;28;21287;-64
2022/11/20 10:14:57;;;;;;;2.00;0.70;;;21.50;30.10;;;;;;5031262;28;20485;-65
2022/11/20 10:17:37;;;;;;;2.00;0.80;;;21.90;29.80;;;;;;5031067;28;20803;-67
2022/11/20 10:20:17;;;;;;;2.27;1.17;;;22.20;29.20;;;;;;5030923;28;20503;-65
2022/11/20 10:23:01;;;;;;;2.10;0.90;;;22.80;29.50;;;;;;5029533;28;20441;-66
2022/11/20 10:25:39;;;;;;;2.43;0.93;;;23.50;29.00;;;;;;5031236;28;20536;-65
2022/11/20 10:28:25;;;;;;;1.90;0.80;;;23.90;28.00;;;;;;5030772;28;20453;-65
2022/11/20 10:31:01;;;;;;;1.93;0.80;;;24.20;26.30;;;;;;5030669;28;20446;-66
2022/11/20 10:33:32;;;;;;;1.80;0.90;;;24.20;26.00;;;;;;5029207;28;20539;-65
2022/11/20 10:36:14;;;;;;;4.10;1.00;;;24.60;26.00;;;;;;5030144;28;21024;-65
2022/11/20 10:38:47;;;;;;;1.97;0.80;;;24.80;25.00;;;;;;5029570;28;20444;-67
2022/11/20 10:41:27;;;;;;;2.40;0.90;;;25.10;25.00;;;;;;5030170;28;20923;-66
2022/11/20 10:44:06;;;;;;;2.77;1.17;;;25.10;24.10;;;;;;5030853;28;21061;-66
2022/11/20 10:46:44;;;;;;;2.07;1.10;;;25.20;22.90;;;;;;5029439;28;20477;-65
2022/11/20 10:49:15;;;;;;;2.00;0.90;;;24.70;23.30;;;;;;5029507;28;20442;-66
2022/11/20 10:52:00;;;;;;;1.83;0.60;;;24.50;23.80;;;;;;5028636;28;20481;-66
2022/11/20 10:54:36;;;;;;;2.10;0.73;;;24.70;24.00;;;;;;5030042;28;20524;-66
2022/11/20 10:57:16;;;;;;;1.70;0.70;;;25.00;23.80;;;;;;5029805;28;20538;-66
2022/11/20 11:00:01;;;;;;;2.30;0.80;;;25.20;24.20;;;;;;5028039;28;20816;-66
2022/11/20 11:02:40;;;;;;;2.00;0.90;;;25.70;24.30;;;;;;5028986;28;20944;-67
2022/11/20 11:08:40;;;;;;;1.90;0.90;;;26.40;23.40;;;;;;5029035;28;20475;-66
2022/11/20 11:11:19;;;;;;;2.03;0.77;;;26.70;23.00;;;;;;5028315;28;20495;-66
2022/11/20 11:13:48;;;;;;;1.80;0.70;;;26.20;21.90;;;;;;5028831;28;20485;-66
2022/11/20 11:16:25;;;;;;;2.20;0.90;;;25.50;22.00;;;;;;5029517;28;20437;-65
2022/11/20 11:19:12;;;;;;;2.60;1.00;;;24.90;22.10;;;;;;5027926;28;20832;-66
2022/11/20 11:21:47;;;;;;;2.00;0.97;;;24.70;23.30;;;;;;5028550;28;20511;-66
2022/11/20 11:24:26;;;;;;;1.80;0.70;;;25.40;23.50;;;;;;5029253;28;20436;-65
2022/11/20 11:27:04;;;;;;;2.10;0.90;;;26.30;22.70;;;;;;5026689;28;20441;-66
2022/11/20 11:29:40;;;;;;;3.60;0.80;;;26.90;21.90;;;;;;5029471;28;20607;-65
2022/11/20 11:32:09;;;;;;;1.83;0.73;;;27.30;21.80;;;;;;5028168;28;20446;-66
2022/11/20 11:34:39;;;;;;;2.40;0.80;;;27.40;20.40;;;;;;5029253;28;20488;-66
2022/11/20 11:37:14;;;;;;;1.80;0.70;;;27.40;21.00;;;;;;5028729;28;20442;-66
2022/11/20 11:39:43;;;;;;;2.43;0.83;;;27.50;20.80;;;;;;5028798;28;20919;-66
2022/11/20 11:42:20;;;;;;;2.27;0.80;;;27.50;20.50;;;;;;5028621;28;20442;-67
2022/11/20 11:47:49;;;;;;;1.93;0.87;;;27.00;20.10;;;;;;5019397;28;20429;-66
2022/11/20 11:50:21;;;;;;;2.93;0.90;;;26.70;19.90;;;;;;5030374;28;20488;-65
2022/11/20 11:53:12;;;;;;;2.83;0.80;;;26.30;20.40;;;;;;5027888;28;20449;-68
2022/11/20 11:55:45;;;;;;;1.97;0.90;;;26.30;20.80;;;;;;5025013;28;20484;-66
2022/11/20 11:58:39;;;;;;;1.80;0.73;;;26.20;20.90;;;;;;5028053;28;20452;-65
2022/11/20 12:01:23;;;;;;;2.80;0.77;;;26.00;21.30;;;;;;5027817;28;21198;-68
2022/11/20 12:04:12;;;;;;;1.90;0.70;;;26.00;20.90;;;;;;5025800;28;20971;-65
2022/11/20 12:07:13;;;;;;;2.53;1.30;;;25.60;20.70;;;;;;5018341;28;20442;-67
2022/11/20 12:09:47;;;;;;;2.50;0.70;;;25.20;21.20;;;;;;5025617;28;20437;-66
2022/11/20 12:12:19;;;;;;;2.47;0.90;;;25.00;21.60;;;;;;5029519;28;20504;-65
2022/11/20 12:14:50;;;;;;;1.93;0.80;;;24.80;21.40;;;;;;5025221;28;20524;-65
2022/11/20 12:17:31;;;;;;;2.47;0.80;;;24.60;21.40;;;;;;5029446;28;20454;-65
2022/11/20 12:19:59;;;;;;;1.87;0.73;;;24.60;21.60;;;;;;5029560;28;20548;-65
2022/11/20 12:22:34;;;;;;;2.10;0.80;;;24.60;22.00;;;;;;5030142;28;20446;-65
2022/11/20 12:25:09;;;;;;;1.80;0.70;;;24.60;22.20;;;;;;5028940;28;20852;-66
2022/11/20 12:27:52;;;;;;;2.63;0.70;;;24.30;21.30;;;;;;5029697;28;20495;-65
2022/11/20 12:30:21;;;;;;;2.00;0.90;;;24.10;22.20;;;;;;5030475;28;20955;-65
2022/11/20 12:33:34;;;;;;;1.70;0.70;;;23.80;22.40;;;;;;5030703;28;20449;-66
2022/11/20 12:36:18;;;;;;;1.97;1.00;;;23.80;22.10;;;;;;4994653;28;20481;-65
2022/11/20 12:39:27;;;;;;;2.53;1.10;;;23.60;22.40;;;;;;5030539;28;20442;-66
2022/11/20 12:45:43;;;;;;;1.77;0.70;;;23.70;22.70;;;;;;4974899;28;20441;-67
2022/11/20 12:48:27;;;;;;;2.23;0.70;;;23.50;22.30;;;;;;5030050;28;20866;-65
2022/11/20 12:51:09;;;;;;;2.20;1.00;;;22.90;22.40;;;;;;5030434;28;20944;-66
2022/11/20 12:53:45;;;;;;;1.67;0.70;;;22.00;22.60;;;;;;5027704;28;20434;-67
2022/11/20 12:56:42;;;;;;;1.70;0.70;;;21.10;23.40;;;;;;5029715;28;20955;-66
2022/11/20 12:59:30;;;;;;;4.57;0.90;;;20.40;24.50;;;;;;5030093;28;20444;-65
2022/11/20 13:02:06;;;;;;;3.10;0.90;;;19.50;25.00;;;;;;5029326;28;20484;-66
2022/11/20 13:05:19;;;;;;;1.90;0.80;;;18.90;25.80;;;;;;5030378;28;20495;-65
2022/11/20 13:07:48;;;;;;;2.17;0.87;;;18.20;26.60;;;;;;4945544;29;20442;-66
2022/11/20 13:10:22;;;;;;;1.73;0.63;;;17.70;27.30;;;;;;5018812;28;20446;-66
2022/11/20 13:12:58;;;;;;;1.67;0.67;;;17.50;28.20;;;;;;5028682;28;20525;-66
2022/11/20 13:15:37;;;;;;;4.10;0.80;;;17.40;28.50;;;;;;5024814;28;20477;-65
2022/11/20 13:18:09;;;;;;;1.70;0.70;;;17.30;28.40;;;;;;5029170;28;20524;-66
2022/11/20 13:20:42;;;;;;;1.90;0.80;;;17.30;28.70;;;;;;5024596;28;20517;-66
2022/11/20 13:23:10;;;;;;;2.00;0.80;;;17.10;27.90;;;;;;5028233;28;20441;-67
2022/11/20 13:25:39;;;;;;;1.80;0.97;;;17.10;28.40;;;;;;5031118;28;20507;-66
2022/11/20 13:28:30;;;;;;;2.57;0.80;;;17.10;28.40;;;;;;5029478;28;20466;-67
2022/11/20 13:30:59;;;;;;;4.80;0.97;;;17.20;28.90;;;;;;5032430;28;20464;-65
2022/11/20 13:33:33;;;;;;;5.23;1.03;;;17.20;29.60;;;;;;5029368;28;20437;-65
2022/11/20 13:36:02;;;;;;;2.07;0.97;;;17.40;29.60;;;;;;5031901;28;20492;-65
2022/11/20 13:38:41;;;;;;;2.57;0.97;;;17.60;28.60;;;;;;5032037;28;20442;-65
2022/11/20 13:43:53;;;;;;;1.90;0.93;;;16.90;28.90;;;;;;5028136;28;20434;-65